Estación Meteorológica Peña el Pijo (Robertgarden) [ 06/14/24 08:44:07 CEST ]

Fecha Hora Presion(HPa) Temp (°C) Humedad % Rocio (°C) Viento ( m/s) Direccion Lluvia 1Hora(mm) Lluvia 24H(mm) LLuvia Total(mm)
2008-Jun-10 01:05:13 1012.000 9.6 92 8.3       15.54 213.91
2008-Jun-10 02:05:17 1011.700 8.9 93 7.8       13.46 213.91
2008-Jun-10 03:05:17 1011.300 8.7 94 7.8       9.84 213.91
2008-Jun-10 04:05:12 1011.200 9.3 94 8.4       6.73 213.91
2008-Jun-10 05:05:14 1010.700 9.1 95 8.3       5.69 213.91
2008-Jun-10 06:05:16 1010.800 8.7 95 8.0       5.69 213.91
2008-Jun-10 07:05:14 1011.100 8.9 96 8.3       5.69 213.91
2008-Jun-10 08:05:15 1011.200 9.7 96 9.1       5.69 213.91
2008-Jun-10 09:05:14 1011.700 11.3 93 10.2       5.69 213.91
2008-Jun-10 10:05:17 1011.900 14.5 81 11.3       5.69 213.91
2008-Jun-10 11:05:16 1011.900 17.4 69 11.7       5.18 213.91
2008-Jun-10 12:05:14 1011.900 20.1 55 10.7       5.18 213.91
2008-Jun-10 13:05:17 1011.700 18.8 57 10.1       5.18 213.91
2008-Jun-10 14:05:21 1012.200 13.8 78 10.0     0.51 5.69 214.43
2008-Jun-10 15:05:25 1012.000 20.3 62 12.8 1.6 NNE 0.51 5.69 214.95
2008-Jun-10 16:05:21 1011.200 22.4 50 11.5       5.69 214.95
2008-Jun-10 17:05:19 1010.900 16.4 67 10.3     1.03 4.14 215.98
2008-Jun-10 18:05:23 1010.900 15.2 81 12.0     0.51 3.10 216.50
2008-Jun-10 19:05:23 1011.300 13.1 86 10.8     0.51 3.10 217.02
2008-Jun-10 20:05:16 1011.500 14.8 86 12.5     1.03 4.14 218.05
2008-Jun-10 21:05:16 1011.600 13.5 87 11.4       4.14 218.05
2008-Jun-10 22:05:17 1012.200 12.1 91 10.7     0.51 4.66 218.57
2008-Jun-10 23:05:13 1012.900 11.6 92 10.3       4.66 218.57

Temperatura Máxima:22°    Temperatura Mínima:
Presión Máxima:1012.900 Hpa    Presión Mínima:1010.700 Hpa


Volver